Terminal Aerodrome Forecast
Issued by NWS

Home | Current Version | Previous Version | Text Only | Print | Product List | Glossary On
Versions: 1 2 3 4 5 6 7 8 9 10 11 12 13 14 15 16 17 18 19 20 21
511
FTUS42 TJSJ 220527
TAFJSJ
TAF
TJSJ 220527Z 2206/2306 07016G24KT P6SM SCT035 SCT060
     FM221300 07018G28KT P6SM FEW030 SCT050
     FM222100 07018G26KT P6SM VCSH SCT028 BKN050=

USA.gov is the U.S. government's official web portal to all federal, state and local government web resources and services.